Terminal Aerodrome Forecast
Issued by NWS

Home | Current Version | Previous Version | Text Only | Print | Product List | Glossary On
Versions: 1 2 3 4 5 6 7 8 9 10 11 12 13
000
FTUS45 KABQ 312300
TAFGUP
TAF
KGUP 312334Z 0100/0124 16010KT P6SM VCSH SCT080 BKN110
      TEMPO 0100/0101 VRB15G30KT -TSRA BKN070CB
     FM010600 19009KT P6SM SCT050 BKN110
     FM011800 21013G23KT P6SM FEW050 SCT200=

USA.gov is the U.S. government's official web portal to all federal, state and local government web resources and services.